createdAt,value
2018-07-13T00:00:31.790Z,19.98
2018-07-13T00:03:34.012Z,19.98
2018-07-13T00:06:36.021Z,19.93
2018-07-13T00:09:38.183Z,19.94
2018-07-13T00:12:41.387Z,19.94
2018-07-13T00:15:55.289Z,19.99
2018-07-13T00:18:57.379Z,20.04
2018-07-13T00:21:59.476Z,20.04
2018-07-13T00:25:01.645Z,19.79
2018-07-13T00:28:03.667Z,19.71
2018-07-13T00:31:05.780Z,19.66
2018-07-13T00:34:07.876Z,19.61
2018-07-13T00:37:11.640Z,19.59
2018-07-13T00:40:13.626Z,19.39
2018-07-13T00:43:15.765Z,19.11
2018-07-13T00:46:18.127Z,19.10
2018-07-13T00:49:20.152Z,19.02
2018-07-13T00:52:22.438Z,18.79
2018-07-13T00:55:25.519Z,18.71
2018-07-13T00:58:27.613Z,18.68
2018-07-13T01:01:29.584Z,18.73
2018-07-13T01:04:31.692Z,18.69
2018-07-13T01:07:33.815Z,18.77
2018-07-13T01:10:36.020Z,18.84
2018-07-13T01:13:40.279Z,18.79
2018-07-13T01:16:42.373Z,18.81
2018-07-13T01:19:44.703Z,18.89
2018-07-13T01:22:46.803Z,18.90
2018-07-13T01:25:48.881Z,18.68
2018-07-13T01:28:51.028Z,18.69
2018-07-13T01:31:53.116Z,18.80
2018-07-13T01:34:55.319Z,18.84
2018-07-13T01:37:57.439Z,18.85
2018-07-13T01:40:59.455Z,18.85
2018-07-13T01:44:01.459Z,18.93
2018-07-13T01:47:03.590Z,18.99
2018-07-13T01:50:06.816Z,19.07
2018-07-13T01:53:08.916Z,19.13
2018-07-13T01:56:11.764Z,19.06
2018-07-13T01:59:13.926Z,18.95
2018-07-13T02:02:15.980Z,18.85
2018-07-13T02:05:18.112Z,18.71
2018-07-13T02:08:20.168Z,18.81
2018-07-13T02:11:22.334Z,18.84
2018-07-13T02:14:24.292Z,18.64
2018-07-13T02:17:26.413Z,18.50
2018-07-13T02:20:28.480Z,18.54
2018-07-13T02:26:39.502Z,18.25
2018-07-13T02:29:42.511Z,18.08
2018-07-13T02:32:44.612Z,18.11
2018-07-13T02:35:46.686Z,18.08
2018-07-13T02:38:48.871Z,18.04
2018-07-13T02:41:51.637Z,18.09
2018-07-13T02:44:53.887Z,18.15
2018-07-13T02:47:57.009Z,18.20
2018-07-13T02:50:59.064Z,18.20
2018-07-13T02:54:01.228Z,18.18
2018-07-13T02:57:04.548Z,18.25
2018-07-13T03:00:06.700Z,18.27
2018-07-13T03:03:08.781Z,18.10
2018-07-13T03:06:11.803Z,17.67
2018-07-13T03:09:14.147Z,17.56
2018-07-13T03:12:16.260Z,17.39
2018-07-13T03:15:18.301Z,17.52
2018-07-13T03:18:20.526Z,17.50
2018-07-13T03:21:22.657Z,17.36
2018-07-13T03:24:24.701Z,17.24
2018-07-13T03:27:26.772Z,17.17
2018-07-13T03:30:29.852Z,17.17
2018-07-13T03:33:31.971Z,17.16
2018-07-13T03:36:36.095Z,17.22
2018-07-13T03:39:38.131Z,17.19
2018-07-13T03:42:41.196Z,17.11
2018-07-13T03:45:43.280Z,17.15
2018-07-13T03:48:45.349Z,17.18
2018-07-13T03:51:47.392Z,17.05
2018-07-13T03:54:49.516Z,17.07
2018-07-13T03:57:51.564Z,17.15
2018-07-13T04:00:53.628Z,17.17
2018-07-13T04:03:56.741Z,17.29
2018-07-13T04:06:58.933Z,17.42
2018-07-13T04:10:00.987Z,17.46
2018-07-13T04:13:03.056Z,17.40
2018-07-13T04:16:05.307Z,17.23
2018-07-13T04:19:07.374Z,17.20
2018-07-13T04:22:09.560Z,17.23
2018-07-13T04:25:12.757Z,17.39
2018-07-13T04:28:15.596Z,17.56
2018-07-13T04:31:17.599Z,17.69
2018-07-13T04:34:19.769Z,17.80
2018-07-13T04:37:21.669Z,17.89
2018-07-13T04:40:23.722Z,18.01
2018-07-13T04:43:26.218Z,18.06
2018-07-13T04:46:28.327Z,18.12
2018-07-13T04:49:30.544Z,18.12
2018-07-13T04:52:32.716Z,18.09
2018-07-13T04:55:34.869Z,18.11
2018-07-13T04:58:38.126Z,18.12
2018-07-13T05:01:40.339Z,18.12
2018-07-13T05:04:43.247Z,18.17
2018-07-13T05:07:45.337Z,18.25
2018-07-13T05:10:47.499Z,18.33
2018-07-13T05:13:49.743Z,18.44
2018-07-13T05:16:51.921Z,18.28
2018-07-13T05:19:54.112Z,18.28
2018-07-13T05:22:56.433Z,18.42
2018-07-13T05:25:58.613Z,18.37
2018-07-13T05:29:00.887Z,18.30
2018-07-13T05:32:02.941Z,18.40
2018-07-13T05:35:05.197Z,18.37
2018-07-13T05:38:07.471Z,18.43
2018-07-13T05:41:10.049Z,18.55
2018-07-13T05:44:12.662Z,18.61
2018-07-13T05:47:14.820Z,18.78
2018-07-13T05:50:17.127Z,18.96
2018-07-13T05:53:19.701Z,19.13
2018-07-13T05:56:21.764Z,19.25
2018-07-13T05:59:27.907Z,19.34
2018-07-13T06:02:30.088Z,19.47
2018-07-13T06:05:32.183Z,19.62
2018-07-13T06:08:34.363Z,19.75
2018-07-13T06:11:36.789Z,19.67
2018-07-13T06:14:38.767Z,19.72
2018-07-13T06:17:42.536Z,19.66
2018-07-13T06:20:44.577Z,19.67
2018-07-13T06:23:46.744Z,19.56
2018-07-13T06:26:48.772Z,19.75
2018-07-13T06:29:51.096Z,19.72
2018-07-13T06:32:53.527Z,19.82
2018-07-13T06:35:55.652Z,19.77
2018-07-13T06:38:57.859Z,19.66
2018-07-13T06:42:00.015Z,19.80
2018-07-13T06:45:02.193Z,19.98
2018-07-13T06:48:04.580Z,20.26
2018-07-13T06:51:07.823Z,20.52
2018-07-13T06:54:10.564Z,20.83
2018-07-13T06:57:22.761Z,20.68
2018-07-13T07:00:58.238Z,20.86
2018-07-13T07:04:32.631Z,20.93
2018-07-13T07:07:34.820Z,20.93
2018-07-13T07:10:36.985Z,20.96
2018-07-13T07:13:40.918Z,21.11
2018-07-13T07:16:43.716Z,21.22
2018-07-13T07:19:45.809Z,21.34
2018-07-13T07:22:47.940Z,21.63
2018-07-13T07:25:49.959Z,21.80
2018-07-13T07:28:52.008Z,21.90
2018-07-13T07:31:54.072Z,22.08
2018-07-13T07:34:56.181Z,22.22
2018-07-13T07:37:58.191Z,22.34
2018-07-13T07:41:00.350Z,22.34
2018-07-13T07:44:02.542Z,22.45
2018-07-13T07:47:04.643Z,22.57
2018-07-13T07:50:06.825Z,22.50
2018-07-13T07:53:08.928Z,22.82
2018-07-13T07:56:11.109Z,23.03
2018-07-13T07:59:13.791Z,22.77
2018-07-13T08:02:15.948Z,22.85
2018-07-13T08:05:18.080Z,23.03
2018-07-13T08:08:20.183Z,23.15
2018-07-13T08:11:22.304Z,23.17
2018-07-13T08:14:24.541Z,23.11
2018-07-13T08:17:26.697Z,23.05
2018-07-13T08:20:30.938Z,23.46
2018-07-13T08:23:33.079Z,23.48
2018-07-13T08:26:35.293Z,23.54
2018-07-13T08:29:39.396Z,24.08
2018-07-13T08:32:41.624Z,24.35
2018-07-13T08:35:43.596Z,24.27
2018-07-13T08:38:46.217Z,24.16
2018-07-13T08:41:48.384Z,24.25
2018-07-13T08:44:50.595Z,24.32
2018-07-13T08:47:52.800Z,24.57
2018-07-13T08:50:55.163Z,24.76
2018-07-13T08:53:57.240Z,24.83
2018-07-13T08:56:59.916Z,25.06
2018-07-13T09:00:02.119Z,24.95
2018-07-13T09:03:04.426Z,24.70
2018-07-13T09:06:06.533Z,25.01
2018-07-13T09:09:12.526Z,25.07
2018-07-13T09:12:14.529Z,25.18
2018-07-13T09:15:16.647Z,25.04
2018-07-13T09:18:18.748Z,25.19
2018-07-13T09:21:20.788Z,25.17
2018-07-13T09:24:22.913Z,25.38
2018-07-13T09:27:24.964Z,25.62
2018-07-13T09:30:27.152Z,25.86
2018-07-13T09:33:29.580Z,26.23
2018-07-13T09:36:31.754Z,26.27
2018-07-13T09:39:33.959Z,26.28
2018-07-13T09:42:36.303Z,26.53
2018-07-13T09:45:38.481Z,26.64
2018-07-13T09:48:40.665Z,26.67
2018-07-13T09:51:42.732Z,26.64
2018-07-13T09:54:44.896Z,26.36
2018-07-13T09:57:46.924Z,26.44
2018-07-13T10:00:54.937Z,26.25
2018-07-13T10:03:56.908Z,26.44
2018-07-13T10:06:59.757Z,26.69
2018-07-13T10:10:01.873Z,26.85
2018-07-13T10:13:04.056Z,26.91
2018-07-13T10:16:06.128Z,27.07
2018-07-13T10:19:08.292Z,27.32
2018-07-13T10:22:13.792Z,27.49
2018-07-13T10:25:16.372Z,27.65
2018-07-13T10:28:18.481Z,27.64
2018-07-13T10:31:20.503Z,27.30
2018-07-13T10:34:24.378Z,27.20
2018-07-13T10:37:28.520Z,27.29
2018-07-13T10:40:30.624Z,27.44
2018-07-13T10:43:32.819Z,26.86
2018-07-13T10:46:34.904Z,27.09
2018-07-13T10:49:36.988Z,27.41
2018-07-13T10:52:39.090Z,27.59
2018-07-13T10:55:41.183Z,27.63
2018-07-13T10:58:44.305Z,27.91
2018-07-13T11:01:46.319Z,27.99
2018-07-13T11:04:48.275Z,27.76
2018-07-13T11:07:50.689Z,27.46
2018-07-13T11:10:52.829Z,27.32
2018-07-13T11:13:54.987Z,27.83
2018-07-13T11:16:57.089Z,28.05
2018-07-13T11:19:59.965Z,27.74
2018-07-13T11:23:02.803Z,27.54
2018-07-13T11:26:04.726Z,27.77
2018-07-13T11:29:06.739Z,28.35
2018-07-13T11:32:09.772Z,28.58
2018-07-13T11:35:13.890Z,28.80
2018-07-13T11:38:15.946Z,28.66
2018-07-13T11:41:18.109Z,28.73
2018-07-13T11:44:20.228Z,28.83
2018-07-13T11:47:22.384Z,28.47
2018-07-13T11:50:25.516Z,28.67
2018-07-13T11:53:27.503Z,28.70
2018-07-13T11:56:29.572Z,28.87
2018-07-13T11:59:31.683Z,29.12
2018-07-13T12:02:35.703Z,29.23
2018-07-13T12:05:37.759Z,29.27
2018-07-13T12:08:39.825Z,29.56
2018-07-13T12:11:42.252Z,29.75
2018-07-13T12:14:44.380Z,29.57
2018-07-13T12:17:46.618Z,28.99
2018-07-13T12:20:48.619Z,28.91
2018-07-13T12:23:52.741Z,28.94
2018-07-13T12:26:54.876Z,29.17
2018-07-13T12:29:56.988Z,29.27
2018-07-13T12:32:58.960Z,28.90
2018-07-13T12:36:01.032Z,28.91
2018-07-13T12:39:03.463Z,28.98
2018-07-13T12:42:05.657Z,29.51
2018-07-13T12:45:07.759Z,29.83
2018-07-13T12:48:10.065Z,29.67
2018-07-13T12:51:12.501Z,29.71
2018-07-13T12:54:15.329Z,29.53
2018-07-13T12:57:17.562Z,28.87
2018-07-13T13:00:19.720Z,28.73
2018-07-13T13:03:21.877Z,28.89
2018-07-13T13:06:25.065Z,29.21
2018-07-13T13:09:27.184Z,29.25
2018-07-13T13:12:29.259Z,28.81
2018-07-13T13:15:31.423Z,28.90
2018-07-13T13:18:33.648Z,28.95
2018-07-13T13:21:35.862Z,28.74
2018-07-13T13:24:37.823Z,28.89
2018-07-13T13:27:41.047Z,28.95
2018-07-13T13:30:43.068Z,29.41
2018-07-13T13:33:46.487Z,29.93
2018-07-13T13:36:48.536Z,29.67
2018-07-13T13:39:50.610Z,29.36
2018-07-13T13:42:52.572Z,29.43
2018-07-13T13:45:54.660Z,29.72
2018-07-13T13:48:56.765Z,29.29
2018-07-13T13:51:58.860Z,29.18
2018-07-13T13:55:00.968Z,29.10
2018-07-13T13:58:02.998Z,29.05
2018-07-13T14:01:05.147Z,28.70
2018-07-13T14:04:07.355Z,28.79
2018-07-13T14:07:09.445Z,28.84
2018-07-13T14:10:11.598Z,28.86
2018-07-13T14:13:13.633Z,28.85
2018-07-13T14:16:15.905Z,28.83
2018-07-13T14:19:17.994Z,28.84
2018-07-13T14:22:20.088Z,28.79
2018-07-13T14:25:22.335Z,28.85
2018-07-13T14:28:24.426Z,28.87
2018-07-13T14:31:27.427Z,28.91
2018-07-13T14:34:29.664Z,28.91
2018-07-13T14:37:32.472Z,28.84
2018-07-13T14:40:34.624Z,28.85
2018-07-13T14:43:36.708Z,28.85
2018-07-13T14:46:38.927Z,28.78
2018-07-13T14:49:42.173Z,28.87
2018-07-13T14:52:44.183Z,28.95
2018-07-13T14:55:47.313Z,29.24
2018-07-13T14:58:49.560Z,29.68
2018-07-13T15:01:52.791Z,30.02
2018-07-13T15:04:54.930Z,30.01
2018-07-13T15:07:57.084Z,30.17
2018-07-13T15:10:59.244Z,30.23
2018-07-13T15:14:01.321Z,30.37
2018-07-13T15:17:03.428Z,30.18
2018-07-13T15:20:05.567Z,30.03
2018-07-13T15:23:07.688Z,29.83
2018-07-13T15:26:09.811Z,29.91
2018-07-13T15:29:12.059Z,29.94
2018-07-13T15:32:14.212Z,30.21
2018-07-13T15:35:17.192Z,30.39
2018-07-13T15:38:20.247Z,30.58
2018-07-13T15:41:22.348Z,30.42
2018-07-13T15:44:24.348Z,30.57
2018-07-13T15:47:26.559Z,30.85
2018-07-13T15:50:29.744Z,30.66
2018-07-13T15:53:31.875Z,30.48
2018-07-13T15:56:33.988Z,30.34
2018-07-13T15:59:37.051Z,30.54
2018-07-13T16:02:39.146Z,30.83
2018-07-13T16:05:41.450Z,30.80
2018-07-13T16:08:43.475Z,30.97
2018-07-13T16:11:45.703Z,30.84
2018-07-13T16:14:47.696Z,30.92
2018-07-13T16:17:49.725Z,30.80
2018-07-13T16:20:51.885Z,30.75
2018-07-13T16:23:54.949Z,30.67
2018-07-13T16:26:57.086Z,30.58
2018-07-13T16:29:59.224Z,30.58
2018-07-13T16:33:01.287Z,30.57
2018-07-13T16:36:03.495Z,30.58
2018-07-13T16:39:06.227Z,30.62
2018-07-13T16:42:08.312Z,30.38
2018-07-13T16:45:10.451Z,30.46
2018-07-13T16:48:12.498Z,30.57
2018-07-13T16:51:14.769Z,30.63
2018-07-13T16:54:17.505Z,30.31
2018-07-13T16:57:19.716Z,30.46
2018-07-13T17:00:21.928Z,30.40
2018-07-13T17:03:24.051Z,30.33
2018-07-13T17:06:26.411Z,30.17
2018-07-13T17:09:28.440Z,30.14
2018-07-13T17:12:31.644Z,30.17
2018-07-13T17:15:33.752Z,30.04
2018-07-13T17:18:35.827Z,30.04
2018-07-13T17:21:37.941Z,30.00
2018-07-13T17:24:40.101Z,30.06
2018-07-13T17:27:42.213Z,29.97
2018-07-13T17:30:44.324Z,29.99
2018-07-13T17:33:47.615Z,29.82
2018-07-13T17:36:49.660Z,29.73
2018-07-13T17:39:51.743Z,29.76
2018-07-13T17:42:53.860Z,29.66
2018-07-13T17:45:55.983Z,29.66
2018-07-13T17:48:58.099Z,29.61
2018-07-13T17:52:00.279Z,29.53
2018-07-13T17:55:02.500Z,29.45
2018-07-13T17:58:04.575Z,29.53
2018-07-13T18:01:07.016Z,29.49
2018-07-13T18:04:09.156Z,29.44
2018-07-13T18:07:11.289Z,29.39
2018-07-13T18:10:13.374Z,29.30
2018-07-13T18:13:15.449Z,29.13
2018-07-13T18:16:18.433Z,29.04
2018-07-13T18:19:21.511Z,28.90
2018-07-13T18:22:23.584Z,28.67
2018-07-13T18:25:25.772Z,28.55
2018-07-13T18:28:27.841Z,28.40
2018-07-13T18:31:29.914Z,28.23
2018-07-13T18:34:32.094Z,28.16
2018-07-13T18:37:34.222Z,28.03
2018-07-13T18:40:36.322Z,27.99
2018-07-13T18:43:38.588Z,27.93
2018-07-13T18:46:40.876Z,27.84
2018-07-13T18:49:44.043Z,27.71
2018-07-13T18:52:46.167Z,27.56
2018-07-13T18:55:48.234Z,27.48
2018-07-13T18:58:50.378Z,27.40
2018-07-13T19:01:52.465Z,27.36
2018-07-13T19:04:54.491Z,27.26
2018-07-13T19:07:56.787Z,27.12
2018-07-13T19:10:58.935Z,27.04
2018-07-13T19:14:01.113Z,26.94
2018-07-13T19:17:03.225Z,26.87
2018-07-13T19:20:05.283Z,26.77
2018-07-13T19:23:07.261Z,26.71
2018-07-13T19:26:09.471Z,26.69
2018-07-13T19:29:11.565Z,26.63
2018-07-13T19:32:14.646Z,26.59
2018-07-13T19:35:16.942Z,26.52
2018-07-13T19:38:19.386Z,26.45
2018-07-13T19:41:21.689Z,26.33
2018-07-13T19:44:23.778Z,26.22
2018-07-13T19:47:26.508Z,26.12
2018-07-13T19:50:28.601Z,26.03
2018-07-13T19:53:30.723Z,25.99
2018-07-13T19:56:32.794Z,25.94
2018-07-13T19:59:34.896Z,25.92
2018-07-13T20:02:36.981Z,25.92
2018-07-13T20:05:39.032Z,25.84
2018-07-13T20:08:41.345Z,25.81
2018-07-13T20:11:43.379Z,25.67
2018-07-13T20:14:45.460Z,25.59
2018-07-13T20:17:47.552Z,25.60
2018-07-13T20:20:49.632Z,25.58
2018-07-13T20:23:51.655Z,25.54
2018-07-13T20:26:53.765Z,25.49
2018-07-13T20:29:56.973Z,25.44
2018-07-13T20:32:58.916Z,25.36
2018-07-13T20:36:01.025Z,25.30
2018-07-13T20:39:04.017Z,25.33
2018-07-13T20:42:05.980Z,25.34
2018-07-13T20:45:08.131Z,25.30
2018-07-13T20:48:10.191Z,25.31
2018-07-13T20:51:12.351Z,25.29
2018-07-13T20:54:14.445Z,25.28
2018-07-13T20:57:16.605Z,25.26
2018-07-13T21:00:18.652Z,25.20
2018-07-13T21:03:20.764Z,25.13
2018-07-13T21:06:22.832Z,25.08
2018-07-13T21:09:25.180Z,25.07
2018-07-13T21:12:27.446Z,25.05
2018-07-13T21:15:29.412Z,24.93
2018-07-13T21:18:32.526Z,24.75
2018-07-13T21:21:34.564Z,24.69
2018-07-13T21:24:36.627Z,24.60
2018-07-13T21:27:38.711Z,24.52
2018-07-13T21:30:40.704Z,24.37
2018-07-13T21:33:42.763Z,24.20
2018-07-13T21:36:44.798Z,24.18
2018-07-13T21:39:46.928Z,24.08
2018-07-13T21:42:49.056Z,24.02
2018-07-13T21:45:51.147Z,23.94
2018-07-13T21:48:53.325Z,23.81
2018-07-13T21:51:55.435Z,23.67
2018-07-13T21:54:57.589Z,23.52
2018-07-13T21:58:00.944Z,23.41
2018-07-13T22:01:03.009Z,23.36
2018-07-13T22:04:05.221Z,23.22
2018-07-13T22:07:07.243Z,23.18
2018-07-13T22:10:09.468Z,23.10
2018-07-13T22:13:11.614Z,23.08
2018-07-13T22:16:13.671Z,23.20
2018-07-13T22:19:15.758Z,23.28
2018-07-13T22:22:17.891Z,23.31
2018-07-13T22:25:19.992Z,23.28
2018-07-13T22:28:22.065Z,23.19
2018-07-13T22:31:24.184Z,23.11
2018-07-13T22:34:26.307Z,23.12
2018-07-13T22:37:28.368Z,23.17
2018-07-13T22:40:31.606Z,23.20
2018-07-13T22:43:33.604Z,23.21
2018-07-13T22:46:35.709Z,23.15
2018-07-13T22:49:37.724Z,23.06
2018-07-13T22:52:39.852Z,23.01
2018-07-13T22:55:41.914Z,23.01
2018-07-13T22:58:43.973Z,22.80
2018-07-13T23:01:45.993Z,22.72
2018-07-13T23:04:48.115Z,22.54
2018-07-13T23:07:50.184Z,22.63
2018-07-13T23:10:52.262Z,22.68
2018-07-13T23:13:54.330Z,22.69
2018-07-13T23:16:56.355Z,22.51
2018-07-13T23:19:59.382Z,22.51
2018-07-13T23:23:02.608Z,22.37
2018-07-13T23:26:04.649Z,22.33
2018-07-13T23:29:06.735Z,22.38
2018-07-13T23:32:08.884Z,22.29
2018-07-13T23:35:10.981Z,22.30
2018-07-13T23:38:13.048Z,22.33
2018-07-13T23:41:15.008Z,22.35
2018-07-13T23:44:17.063Z,22.19
2018-07-13T23:47:19.330Z,22.20
2018-07-13T23:50:21.433Z,22.17
2018-07-13T23:53:23.530Z,22.13
2018-07-13T23:56:27.607Z,22.05
2018-07-13T23:59:29.701Z,21.83
